Terminal Aerodrome Forecast
Issued by NWS Duluth, MN

Home | Current Version | Previous Version | Text Only | Print | Product List | Glossary On
Versions: 1 2 3 4 5 6 7 8 9 10 11 12 13 14 15 16 17 18 19 20 21 22 23 24
000
FTUS43 KDLH 032327
TAFINL
TAF
KINL 032327Z 0400/0424 30007KT P6SM VCSH OVC060
     FM040300 30003KT P6SM BKN018 OVC040
     FM041600 34008KT P6SM SCT018 SCT100=

USA.gov is the U.S. government's official web portal to all federal, state and local government web resources and services.